createdAt,value
2018-06-13T00:00:04.494Z,15.27
2018-06-13T00:01:04.513Z,15.19
2018-06-13T00:02:04.534Z,15.33
2018-06-13T00:03:04.552Z,15.27
2018-06-13T00:04:04.576Z,15.30
2018-06-13T00:05:04.590Z,15.26
2018-06-13T00:06:04.611Z,15.33
2018-06-13T00:07:04.633Z,15.30
2018-06-13T00:08:04.650Z,15.31
2018-06-13T00:09:04.670Z,15.30
2018-06-13T00:10:04.690Z,15.30
2018-06-13T00:11:04.711Z,15.30
2018-06-13T00:12:04.733Z,15.30
2018-06-13T00:13:04.753Z,15.30
2018-06-13T00:14:04.773Z,15.38
2018-06-13T00:15:04.791Z,15.35
2018-06-13T00:16:04.817Z,15.34
2018-06-13T00:17:04.835Z,15.37
2018-06-13T00:18:04.852Z,15.37
2018-06-13T00:19:04.872Z,15.27
2018-06-13T00:20:04.891Z,15.34
2018-06-13T00:21:04.913Z,15.34
2018-06-13T00:22:04.934Z,15.30
2018-06-13T00:23:04.951Z,15.30
2018-06-13T00:24:04.976Z,15.41
2018-06-13T00:25:04.993Z,15.40
2018-06-13T00:26:05.013Z,15.33
2018-06-13T00:27:05.033Z,15.27
2018-06-13T00:28:05.052Z,15.23
2018-06-13T00:29:05.072Z,15.19
2018-06-13T00:30:05.094Z,15.26
2018-06-13T00:31:05.117Z,15.16
2018-06-13T00:32:05.135Z,15.22
2018-06-13T00:33:05.154Z,15.27
2018-06-13T00:34:05.172Z,15.30
2018-06-13T00:35:05.195Z,15.26
2018-06-13T00:36:05.212Z,15.30
2018-06-13T00:37:05.305Z,15.27
2018-06-13T00:38:05.253Z,15.30
2018-06-13T00:39:05.274Z,15.35
2018-06-13T00:40:05.300Z,15.33
2018-06-13T00:41:05.316Z,15.22
2018-06-13T00:42:05.332Z,15.22
2018-06-13T00:43:05.354Z,15.19
2018-06-13T00:44:05.373Z,15.23
2018-06-13T00:45:05.393Z,15.26
2018-06-13T00:46:05.414Z,15.13
2018-06-13T00:47:05.512Z,15.18
2018-06-13T00:48:05.452Z,15.16
2018-06-13T00:49:05.473Z,15.22
2018-06-13T00:50:05.498Z,15.16
2018-06-13T00:51:05.516Z,15.13
2018-06-13T00:52:05.534Z,15.15
2018-06-13T00:53:05.556Z,15.16
2018-06-13T00:54:05.575Z,15.15
2018-06-13T00:55:05.593Z,15.12
2018-06-13T00:56:05.613Z,15.13
2018-06-13T00:57:05.634Z,15.10
2018-06-13T00:58:05.652Z,15.15
2018-06-13T00:59:05.673Z,15.13
2018-06-13T01:00:05.694Z,15.16
2018-06-13T01:01:05.716Z,15.16
2018-06-13T01:02:05.736Z,15.16
2018-06-13T01:03:05.756Z,15.10
2018-06-13T01:04:05.774Z,15.15
2018-06-13T01:05:05.796Z,15.20
2018-06-13T01:06:05.815Z,15.16
2018-06-13T01:07:05.833Z,15.15
2018-06-13T01:08:05.856Z,15.12
2018-06-13T01:09:05.876Z,15.02
2018-06-13T01:10:05.895Z,15.10
2018-06-13T01:11:05.915Z,15.04
2018-06-13T01:12:05.934Z,14.98
2018-06-13T01:13:05.953Z,15.07
2018-06-13T01:14:05.975Z,15.04
2018-06-13T01:15:05.993Z,15.07
2018-06-13T01:16:06.016Z,15.05
2018-06-13T01:17:06.033Z,15.10
2018-06-13T01:18:06.056Z,15.05
2018-06-13T01:19:06.075Z,15.07
2018-06-13T01:20:06.097Z,15.08
2018-06-13T01:21:06.114Z,15.08
2018-06-13T01:22:06.133Z,15.01
2018-06-13T01:23:06.156Z,15.00
2018-06-13T01:24:06.175Z,15.12
2018-06-13T01:25:06.197Z,15.04
2018-06-13T01:26:06.214Z,15.12
2018-06-13T01:27:06.234Z,14.98
2018-06-13T01:28:06.256Z,15.08
2018-06-13T01:29:06.273Z,14.98
2018-06-13T01:30:06.296Z,15.04
2018-06-13T01:31:06.315Z,15.07
2018-06-13T01:32:06.333Z,15.18
2018-06-13T01:33:06.354Z,15.12
2018-06-13T01:34:06.375Z,15.08
2018-06-13T01:35:06.396Z,15.10
2018-06-13T01:36:06.417Z,15.07
2018-06-13T01:37:06.436Z,15.10
2018-06-13T01:38:06.453Z,15.05
2018-06-13T01:39:06.473Z,15.10
2018-06-13T01:40:06.495Z,15.12
2018-06-13T01:41:06.516Z,15.13
2018-06-13T01:42:06.535Z,15.12
2018-06-13T01:43:06.556Z,15.16
2018-06-13T01:44:06.573Z,15.13
2018-06-13T01:45:06.593Z,15.04
2018-06-13T01:46:06.612Z,15.02
2018-06-13T01:47:06.635Z,15.07
2018-06-13T01:48:06.660Z,15.10
2018-06-13T01:49:06.707Z,15.02
2018-06-13T01:50:06.695Z,15.04
2018-06-13T01:51:06.714Z,15.04
2018-06-13T01:52:06.737Z,14.95
2018-06-13T01:53:06.755Z,15.05
2018-06-13T01:54:06.773Z,15.04
2018-06-13T01:55:06.793Z,15.08
2018-06-13T01:56:06.813Z,15.01
2018-06-13T01:57:06.835Z,15.07
2018-06-13T01:58:06.853Z,15.01
2018-06-13T01:59:06.876Z,15.13
2018-06-13T02:00:06.893Z,15.08
2018-06-13T02:01:06.915Z,15.08
2018-06-13T02:02:06.935Z,15.05
2018-06-13T02:03:06.956Z,14.97
2018-06-13T02:04:06.973Z,15.02
2018-06-13T02:05:06.993Z,15.01
2018-06-13T02:06:07.016Z,14.97
2018-06-13T02:07:07.034Z,14.98
2018-06-13T02:08:07.053Z,14.93
2018-06-13T02:09:07.076Z,15.02
2018-06-13T02:10:07.093Z,15.04
2018-06-13T02:11:07.116Z,14.97
2018-06-13T02:12:07.135Z,15.04
2018-06-13T02:13:07.156Z,15.05
2018-06-13T02:14:07.174Z,14.97
2018-06-13T02:15:07.194Z,14.97
2018-06-13T02:16:07.216Z,14.98
2018-06-13T02:17:07.235Z,15.00
2018-06-13T02:18:07.252Z,14.86
2018-06-13T02:19:07.275Z,14.94
2018-06-13T02:20:07.298Z,14.95
2018-06-13T02:21:07.313Z,14.98
2018-06-13T02:22:07.334Z,14.95
2018-06-13T02:23:07.354Z,14.85
2018-06-13T02:24:07.379Z,14.87
2018-06-13T02:25:07.396Z,14.89
2018-06-13T02:26:07.412Z,14.87
2018-06-13T02:27:07.435Z,14.90
2018-06-13T02:28:07.453Z,14.83
2018-06-13T02:29:07.474Z,14.87
2018-06-13T02:30:07.497Z,14.89
2018-06-13T02:31:07.512Z,14.89
2018-06-13T02:32:07.533Z,14.93
2018-06-13T02:33:07.555Z,14.90
2018-06-13T02:34:07.578Z,14.87
2018-06-13T02:35:07.593Z,14.86
2018-06-13T02:36:07.614Z,14.79
2018-06-13T02:37:07.631Z,14.89
2018-06-13T02:38:07.651Z,14.87
2018-06-13T02:39:07.674Z,14.82
2018-06-13T02:40:07.695Z,14.87
2018-06-13T02:41:07.714Z,14.94
2018-06-13T02:42:07.731Z,14.87
2018-06-13T02:43:07.755Z,14.89
2018-06-13T02:44:07.775Z,14.95
2018-06-13T02:45:07.792Z,14.93
2018-06-13T02:46:07.814Z,14.90
2018-06-13T02:47:07.832Z,14.94
2018-06-13T02:48:07.852Z,15.01
2018-06-13T02:49:07.874Z,14.87
2018-06-13T02:50:07.891Z,14.89
2018-06-13T02:51:07.911Z,14.82
2018-06-13T02:52:07.934Z,14.86
2018-06-13T02:53:07.951Z,14.93
2018-06-13T02:54:07.974Z,14.89
2018-06-13T02:55:07.991Z,14.87
2018-06-13T02:56:08.012Z,14.85
2018-06-13T02:57:08.031Z,14.93
2018-06-13T02:58:08.052Z,14.90
2018-06-13T02:59:08.075Z,14.89
2018-06-13T03:00:08.091Z,14.80
2018-06-13T03:01:08.113Z,14.77
2018-06-13T03:02:08.132Z,14.83
2018-06-13T03:03:08.154Z,14.79
2018-06-13T03:04:08.173Z,14.77
2018-06-13T03:05:08.194Z,14.82
2018-06-13T03:06:08.213Z,14.79
2018-06-13T03:07:08.230Z,14.79
2018-06-13T03:08:08.253Z,14.79
2018-06-13T03:09:08.273Z,14.82
2018-06-13T03:10:08.291Z,14.75
2018-06-13T03:11:08.313Z,14.79
2018-06-13T03:12:08.340Z,14.80
2018-06-13T03:13:08.351Z,14.82
2018-06-13T03:14:08.373Z,14.83
2018-06-13T03:15:08.390Z,14.87
2018-06-13T03:16:08.410Z,14.80
2018-06-13T03:17:08.430Z,14.82
2018-06-13T03:18:08.448Z,14.85
2018-06-13T03:19:08.472Z,14.83
2018-06-13T03:20:08.490Z,14.79
2018-06-13T03:21:08.509Z,14.86
2018-06-13T03:22:08.531Z,14.80
2018-06-13T03:23:08.548Z,14.86
2018-06-13T03:24:08.572Z,14.85
2018-06-13T03:25:08.588Z,14.89
2018-06-13T03:26:08.608Z,14.79
2018-06-13T03:27:08.631Z,14.71
2018-06-13T03:28:08.648Z,14.77
2018-06-13T03:29:08.670Z,14.80
2018-06-13T03:30:08.691Z,14.82
2018-06-13T03:31:08.708Z,14.80
2018-06-13T03:32:08.731Z,14.75
2018-06-13T03:33:08.748Z,14.83
2018-06-13T03:34:08.767Z,14.77
2018-06-13T03:35:08.790Z,14.70
2018-06-13T03:36:08.810Z,14.71
2018-06-13T03:37:08.830Z,14.67
2018-06-13T03:38:08.847Z,14.71
2018-06-13T03:39:08.868Z,14.77
2018-06-13T03:40:08.890Z,14.64
2018-06-13T03:41:08.969Z,14.66
2018-06-13T03:42:08.929Z,14.69
2018-06-13T03:43:08.949Z,14.69
2018-06-13T03:44:08.970Z,14.66
2018-06-13T03:45:08.990Z,14.61
2018-06-13T03:46:09.011Z,14.64
2018-06-13T03:47:09.026Z,14.69
2018-06-13T03:48:09.046Z,14.64
2018-06-13T03:49:09.066Z,14.61
2018-06-13T03:50:09.088Z,14.64
2018-06-13T03:51:09.105Z,14.60
2018-06-13T03:52:09.125Z,14.69
2018-06-13T03:53:09.149Z,14.61
2018-06-13T03:54:09.169Z,14.69
2018-06-13T03:55:09.186Z,14.77
2018-06-13T03:56:09.268Z,14.77
2018-06-13T03:57:09.229Z,14.77
2018-06-13T03:58:09.250Z,14.77
2018-06-13T03:59:09.269Z,14.77
2018-06-13T04:00:09.285Z,14.69
2018-06-13T04:01:09.304Z,14.64
2018-06-13T04:02:09.327Z,14.67
2018-06-13T04:03:09.344Z,14.71
2018-06-13T04:04:09.366Z,14.74
2018-06-13T04:05:09.387Z,14.70
2018-06-13T04:06:09.407Z,14.70
2018-06-13T04:07:09.462Z,14.70
2018-06-13T04:08:09.449Z,14.69
2018-06-13T04:09:09.463Z,14.74
2018-06-13T04:10:09.484Z,14.77
2018-06-13T04:11:09.506Z,14.80
2018-06-13T04:12:09.525Z,14.75
2018-06-13T04:13:09.544Z,14.74
2018-06-13T04:14:09.562Z,14.75
2018-06-13T04:15:09.585Z,14.71
2018-06-13T04:16:09.607Z,14.77
2018-06-13T04:17:09.625Z,14.79
2018-06-13T04:18:09.641Z,14.66
2018-06-13T04:19:09.661Z,14.77
2018-06-13T04:20:09.688Z,14.61
2018-06-13T04:21:09.702Z,14.69
2018-06-13T04:22:09.721Z,14.69
2018-06-13T04:23:09.741Z,14.77
2018-06-13T04:24:09.765Z,14.66
2018-06-13T04:25:09.784Z,14.66
2018-06-13T04:26:09.801Z,14.70
2018-06-13T04:27:09.825Z,14.75
2018-06-13T04:28:09.841Z,14.70
2018-06-13T04:29:09.863Z,14.70
2018-06-13T04:30:09.879Z,14.75
2018-06-13T04:31:09.902Z,14.74
2018-06-13T04:32:09.923Z,14.70
2018-06-13T04:33:09.943Z,14.69
2018-06-13T04:34:09.960Z,14.75
2018-06-13T04:35:09.981Z,14.79
2018-06-13T04:36:09.999Z,14.79
2018-06-13T04:37:10.022Z,14.79
2018-06-13T04:38:10.042Z,14.85
2018-06-13T04:39:10.058Z,14.83
2018-06-13T04:40:10.081Z,14.90
2018-06-13T04:41:10.099Z,15.02
2018-06-13T04:42:10.121Z,14.95
2018-06-13T04:43:10.141Z,15.02
2018-06-13T04:44:10.165Z,15.04
2018-06-13T04:45:10.178Z,14.97
2018-06-13T04:46:10.198Z,15.01
2018-06-13T04:47:10.218Z,15.00
2018-06-13T04:48:10.238Z,15.02
2018-06-13T04:49:10.259Z,15.01
2018-06-13T04:50:10.278Z,14.97
2018-06-13T04:51:10.299Z,14.97
2018-06-13T04:52:10.320Z,15.00
2018-06-13T04:53:10.341Z,14.90
2018-06-13T04:54:10.357Z,14.90
2018-06-13T04:55:10.380Z,14.89
2018-06-13T04:56:10.398Z,14.83
2018-06-13T04:57:10.420Z,14.89
2018-06-13T04:58:10.440Z,14.87
2018-06-13T04:59:10.461Z,14.98
2018-06-13T05:00:10.477Z,14.94
2018-06-13T05:01:10.500Z,15.04
2018-06-13T05:02:10.517Z,14.97
2018-06-13T05:03:10.540Z,14.98
2018-06-13T05:04:10.559Z,15.01
2018-06-13T05:05:10.579Z,15.00
2018-06-13T05:06:10.598Z,15.02
2018-06-13T05:07:10.616Z,14.98
2018-06-13T05:08:10.643Z,14.97
2018-06-13T05:09:10.666Z,15.07
2018-06-13T05:10:10.681Z,15.15
2018-06-13T05:11:10.701Z,15.15
2018-06-13T05:12:10.720Z,15.18
2018-06-13T05:13:10.740Z,15.22
2018-06-13T05:14:10.758Z,15.22
2018-06-13T05:15:10.778Z,15.27
2018-06-13T05:16:10.802Z,15.37
2018-06-13T05:17:10.823Z,15.30
2018-06-13T05:18:10.840Z,15.37
2018-06-13T05:19:10.859Z,15.26
2018-06-13T05:20:10.879Z,15.13
2018-06-13T05:21:10.905Z,15.18
2018-06-13T05:22:10.919Z,15.23
2018-06-13T05:23:10.941Z,15.33
2018-06-13T05:24:10.963Z,15.30
2018-06-13T05:25:10.982Z,15.33
2018-06-13T05:26:10.999Z,15.30
2018-06-13T05:27:11.019Z,15.34
2018-06-13T05:28:11.042Z,15.38
2018-06-13T05:29:11.099Z,15.40
2018-06-13T05:30:11.080Z,15.43
2018-06-13T05:31:11.103Z,15.49
2018-06-13T05:32:11.124Z,15.41
2018-06-13T05:33:11.144Z,15.31
2018-06-13T05:34:11.161Z,15.41
2018-06-13T05:35:11.182Z,15.37
2018-06-13T05:36:11.210Z,15.30
2018-06-13T05:37:11.224Z,15.33
2018-06-13T05:38:11.245Z,15.35
2018-06-13T05:39:11.263Z,15.31
2018-06-13T05:40:11.286Z,15.37
2018-06-13T05:41:11.307Z,15.47
2018-06-13T05:42:11.326Z,15.44
2018-06-13T05:43:11.345Z,15.44
2018-06-13T05:44:11.364Z,15.60
2018-06-13T05:45:11.388Z,15.58
2018-06-13T05:46:11.407Z,15.59
2018-06-13T05:47:11.428Z,15.53
2018-06-13T05:48:11.444Z,15.62
2018-06-13T05:49:11.465Z,15.67
2018-06-13T05:50:11.488Z,15.74
2018-06-13T05:51:11.510Z,15.70
2018-06-13T05:52:11.527Z,15.59
2018-06-13T05:53:11.550Z,15.58
2018-06-13T05:54:11.567Z,15.65
2018-06-13T05:55:11.594Z,15.68
2018-06-13T05:56:11.608Z,15.68
2018-06-13T05:57:11.630Z,15.83
2018-06-13T05:58:11.651Z,15.89
2018-06-13T05:59:11.669Z,15.88
2018-06-13T06:00:11.692Z,15.91
2018-06-13T06:01:11.771Z,15.81
2018-06-13T06:02:11.733Z,15.74
2018-06-13T06:03:11.755Z,15.73
2018-06-13T06:04:11.771Z,15.71
2018-06-13T06:05:11.795Z,15.83
2018-06-13T06:06:11.815Z,15.78
2018-06-13T06:07:11.835Z,15.74
2018-06-13T06:08:11.853Z,15.78
2018-06-13T06:09:11.876Z,15.74
2018-06-13T06:10:11.920Z,15.75
2018-06-13T06:11:11.916Z,15.78
2018-06-13T06:12:11.938Z,15.74
2018-06-13T06:13:11.955Z,15.73
2018-06-13T06:14:11.979Z,15.68
2018-06-13T06:15:12.000Z,15.73
2018-06-13T06:16:12.019Z,15.70
2018-06-13T06:17:12.041Z,15.73
2018-06-13T06:18:12.062Z,15.81
2018-06-13T06:19:12.080Z,15.70
2018-06-13T06:20:12.101Z,15.63
2018-06-13T06:21:12.119Z,15.80
2018-06-13T06:22:12.139Z,15.81
2018-06-13T06:23:12.205Z,15.78
2018-06-13T06:24:12.186Z,15.84
2018-06-13T06:25:12.201Z,15.98
2018-06-13T06:26:12.222Z,16.06
2018-06-13T06:27:12.243Z,15.91
2018-06-13T06:28:12.263Z,15.98
2018-06-13T06:29:12.283Z,15.95
2018-06-13T06:30:12.306Z,15.98
2018-06-13T06:31:12.324Z,15.83
2018-06-13T06:32:12.345Z,15.99
2018-06-13T06:33:12.368Z,15.93
2018-06-13T06:34:12.399Z,16.00
2018-06-13T06:35:12.409Z,15.91
2018-06-13T06:36:12.430Z,15.86
2018-06-13T06:37:12.450Z,15.89
2018-06-13T06:38:12.471Z,15.91
2018-06-13T06:39:12.489Z,15.83
2018-06-13T06:40:12.511Z,15.98
2018-06-13T06:41:12.531Z,15.95
2018-06-13T06:42:12.602Z,15.95
2018-06-13T06:43:12.575Z,15.95
2018-06-13T06:44:12.594Z,15.95
2018-06-13T06:45:12.615Z,15.98
2018-06-13T06:46:12.633Z,16.06
2018-06-13T06:47:12.659Z,16.04
2018-06-13T06:48:12.674Z,15.93
2018-06-13T06:49:12.695Z,15.96
2018-06-13T06:50:12.715Z,15.99
2018-06-13T06:51:12.739Z,15.92
2018-06-13T06:52:12.757Z,15.95
2018-06-13T06:53:12.781Z,15.84
2018-06-13T06:54:12.800Z,15.88
2018-06-13T06:55:12.875Z,15.89
2018-06-13T06:56:12.839Z,15.92
2018-06-13T06:57:12.860Z,16.00
2018-06-13T06:58:12.882Z,16.18
2018-06-13T06:59:12.901Z,16.16
2018-06-13T07:00:12.925Z,16.37
2018-06-13T07:01:12.945Z,16.42
2018-06-13T07:02:12.963Z,16.48
2018-06-13T07:03:12.984Z,16.76
2018-06-13T07:04:13.005Z,16.90
2018-06-13T07:05:13.029Z,16.91
2018-06-13T07:06:13.049Z,17.03
2018-06-13T07:07:13.066Z,16.90
2018-06-13T07:08:13.090Z,17.02
2018-06-13T07:09:13.109Z,17.06
2018-06-13T07:10:13.132Z,17.09
2018-06-13T07:11:13.154Z,16.91
2018-06-13T07:12:13.171Z,16.82
2018-06-13T07:13:13.202Z,16.73
2018-06-13T07:14:13.215Z,16.80
2018-06-13T07:15:13.239Z,16.90
2018-06-13T07:16:13.257Z,17.05
2018-06-13T07:17:13.285Z,17.07
2018-06-13T07:18:13.296Z,17.10
2018-06-13T07:19:13.324Z,17.17
2018-06-13T07:20:13.339Z,17.31
2018-06-13T07:21:13.360Z,17.22
2018-06-13T07:22:13.380Z,17.25
2018-06-13T07:23:13.401Z,17.13
2018-06-13T07:24:13.426Z,17.02
2018-06-13T07:25:13.447Z,16.92
2018-06-13T07:26:13.466Z,16.88
2018-06-13T07:27:13.489Z,16.81
2018-06-13T07:28:13.513Z,16.85
2018-06-13T07:29:13.531Z,16.88
2018-06-13T07:30:13.550Z,17.03
2018-06-13T07:31:13.573Z,17.03
2018-06-13T07:32:13.596Z,17.13
2018-06-13T07:33:13.623Z,17.05
2018-06-13T07:34:13.634Z,17.05
2018-06-13T07:35:13.658Z,17.07
2018-06-13T07:36:13.679Z,17.09
2018-06-13T07:37:13.739Z,17.06
2018-06-13T07:38:13.721Z,17.05
2018-06-13T07:39:13.742Z,16.92
2018-06-13T07:40:13.765Z,17.03
2018-06-13T07:41:13.785Z,17.07
2018-06-13T07:42:13.807Z,17.28
2018-06-13T07:43:13.825Z,17.24
2018-06-13T07:44:13.850Z,17.32
2018-06-13T07:45:13.869Z,17.40
2018-06-13T07:46:13.890Z,17.52
2018-06-13T07:47:13.914Z,17.50
2018-06-13T07:48:13.935Z,17.39
2018-06-13T07:49:13.954Z,17.35
2018-06-13T07:50:13.977Z,17.24
2018-06-13T07:51:13.995Z,16.91
2018-06-13T07:52:14.021Z,16.99
2018-06-13T07:53:14.040Z,16.94
2018-06-13T07:54:14.062Z,16.84
2018-06-13T07:55:14.162Z,16.88
2018-06-13T07:56:14.103Z,16.84
2018-06-13T07:57:14.126Z,16.80
2018-06-13T07:58:14.145Z,16.77
2018-06-13T07:59:14.168Z,16.77
2018-06-13T08:00:14.188Z,16.74
2018-06-13T08:01:14.215Z,16.81
2018-06-13T08:02:14.243Z,16.88
2018-06-13T08:03:14.253Z,16.76
2018-06-13T08:04:14.273Z,17.00
2018-06-13T08:05:14.296Z,17.03
2018-06-13T08:06:14.315Z,17.21
2018-06-13T08:07:14.337Z,16.92
2018-06-13T08:08:14.362Z,16.85
2018-06-13T08:09:14.381Z,16.87
2018-06-13T08:10:14.400Z,16.97
2018-06-13T08:11:14.421Z,17.03
2018-06-13T08:12:14.442Z,17.03
2018-06-13T08:13:14.464Z,17.12
2018-06-13T08:14:14.487Z,17.22
2018-06-13T08:15:14.509Z,17.38
2018-06-13T08:16:14.529Z,17.27
2018-06-13T08:17:14.552Z,17.24
2018-06-13T08:18:14.569Z,17.12
2018-06-13T08:19:14.594Z,16.97
2018-06-13T08:20:14.615Z,16.84
2018-06-13T08:21:14.641Z,16.65
2018-06-13T08:22:14.654Z,16.66
2018-06-13T08:23:14.675Z,16.59
2018-06-13T08:24:14.698Z,16.65
2018-06-13T08:25:14.720Z,16.65
2018-06-13T08:26:14.739Z,16.52
2018-06-13T08:27:14.762Z,16.66
2018-06-13T08:28:14.782Z,16.63
2018-06-13T08:29:14.804Z,16.67
2018-06-13T08:30:14.823Z,16.58
2018-06-13T08:31:14.845Z,16.52
2018-06-13T08:32:14.866Z,16.51
2018-06-13T08:33:14.891Z,16.51
2018-06-13T08:34:14.911Z,16.51
2018-06-13T08:35:14.929Z,16.44
2018-06-13T08:36:14.950Z,16.44
2018-06-13T08:37:14.973Z,16.18
2018-06-13T08:38:14.994Z,16.21
2018-06-13T08:39:15.016Z,16.21
2018-06-13T08:40:15.035Z,15.99
2018-06-13T08:41:15.057Z,15.96
2018-06-13T08:42:15.078Z,16.02
2018-06-13T08:43:15.096Z,16.02
2018-06-13T08:44:15.120Z,16.10
2018-06-13T08:45:15.137Z,16.14
2018-06-13T08:46:15.162Z,16.27
2018-06-13T08:47:15.180Z,16.40
2018-06-13T08:48:15.204Z,16.47
2018-06-13T08:49:15.228Z,16.54
2018-06-13T08:50:15.245Z,16.59
2018-06-13T08:51:15.266Z,16.70
2018-06-13T08:52:15.288Z,16.59
2018-06-13T08:53:15.307Z,16.63
2018-06-13T08:54:15.328Z,16.49
2018-06-13T08:55:15.349Z,16.48
2018-06-13T08:56:15.371Z,16.39
2018-06-13T08:57:15.389Z,16.51
2018-06-13T08:58:15.409Z,16.54
2018-06-13T08:59:15.430Z,16.65
2018-06-13T09:00:15.451Z,16.58
2018-06-13T09:01:15.472Z,16.48
2018-06-13T09:02:15.492Z,16.44
2018-06-13T09:03:15.569Z,16.37
2018-06-13T09:04:15.537Z,16.42
2018-06-13T09:05:15.557Z,16.47
2018-06-13T09:06:15.576Z,16.54
2018-06-13T09:07:15.596Z,16.67
2018-06-13T09:08:15.621Z,16.59
2018-06-13T09:09:15.640Z,16.65
2018-06-13T09:10:15.660Z,16.73
2018-06-13T09:11:15.684Z,16.84
2018-06-13T09:12:15.701Z,16.90
2018-06-13T09:13:15.723Z,16.90
2018-06-13T09:14:15.746Z,17.06
2018-06-13T09:15:15.764Z,17.15
2018-06-13T09:16:15.786Z,17.38
2018-06-13T09:17:15.809Z,17.58
2018-06-13T09:18:15.826Z,17.58
2018-06-13T09:19:15.851Z,17.87
2018-06-13T09:20:15.868Z,18.05
2018-06-13T09:21:15.893Z,18.35
2018-06-13T09:22:15.913Z,18.57
2018-06-13T09:23:15.933Z,18.86
2018-06-13T09:24:15.953Z,18.65
2018-06-13T09:25:15.974Z,18.82
2018-06-13T09:26:16.001Z,18.65
2018-06-13T09:27:16.019Z,18.82
2018-06-13T09:28:16.042Z,18.86
2018-06-13T09:29:16.060Z,18.90
2018-06-13T09:30:16.083Z,18.84
2018-06-13T09:31:16.179Z,19.06
2018-06-13T09:32:16.128Z,18.86
2018-06-13T09:33:16.147Z,18.63
2018-06-13T09:34:16.171Z,18.66
2018-06-13T09:35:16.192Z,18.93
2018-06-13T09:36:16.214Z,19.19
2018-06-13T09:37:16.267Z,19.31
2018-06-13T09:38:16.256Z,19.52
2018-06-13T09:39:16.281Z,19.78
2018-06-13T09:40:16.303Z,20.02
2018-06-13T09:41:16.325Z,20.00
2018-06-13T09:42:16.346Z,20.22
2018-06-13T09:43:16.379Z,20.54
2018-06-13T09:44:16.392Z,20.25
2018-06-13T09:45:16.414Z,20.46
2018-06-13T09:46:16.435Z,20.20
2018-06-13T09:47:23.456Z,20.26
2018-06-13T09:48:16.481Z,19.82
2018-06-13T09:49:16.506Z,19.60
2018-06-13T09:50:16.530Z,19.38
2018-06-13T09:51:16.550Z,19.24
2018-06-13T09:52:16.575Z,19.15
2018-06-13T09:53:16.616Z,19.19
2018-06-13T09:54:16.619Z,19.19
2018-06-13T09:55:16.643Z,19.05
2018-06-13T09:56:16.671Z,19.05
2018-06-13T09:57:16.691Z,19.00
2018-06-13T09:58:16.712Z,19.19
2018-06-13T09:59:16.737Z,19.15
2018-06-13T10:00:16.758Z,19.27
2018-06-13T10:01:16.781Z,19.20
2018-06-13T10:02:16.845Z,19.30
2018-06-13T10:03:16.829Z,19.28
2018-06-13T10:04:16.850Z,19.15
2018-06-13T10:05:16.874Z,18.97
2018-06-13T10:06:16.897Z,18.56
2018-06-13T10:07:16.923Z,18.50
2018-06-13T10:08:16.944Z,18.38
2018-06-13T10:09:16.967Z,18.51
2018-06-13T10:10:16.989Z,18.59
2018-06-13T10:11:17.075Z,18.72
2018-06-13T10:12:17.037Z,18.75
2018-06-13T10:13:17.057Z,18.81
2018-06-13T10:14:17.084Z,18.68
2018-06-13T10:15:17.108Z,18.69
2018-06-13T10:16:17.127Z,18.71
2018-06-13T10:17:17.150Z,18.78
2018-06-13T10:18:17.170Z,18.76
2018-06-13T10:19:17.192Z,18.86
2018-06-13T10:20:17.218Z,18.90
2018-06-13T10:21:17.239Z,19.02
2018-06-13T10:22:17.376Z,19.27
2018-06-13T10:23:17.285Z,19.38
2018-06-13T10:24:17.310Z,19.61
2018-06-13T10:25:17.328Z,19.42
2018-06-13T10:26:17.350Z,19.35
2018-06-13T10:27:17.374Z,19.07
2018-06-13T10:28:17.398Z,19.13
2018-06-13T10:29:17.420Z,19.24
2018-06-13T10:30:17.441Z,19.28
2018-06-13T10:31:17.468Z,19.43
2018-06-13T10:32:17.487Z,19.50
2018-06-13T10:33:17.509Z,19.55
2018-06-13T10:34:17.592Z,19.60
2018-06-13T10:35:17.563Z,19.74
2018-06-13T10:36:17.579Z,19.50
2018-06-13T10:37:17.606Z,19.35
2018-06-13T10:38:17.621Z,19.34
2018-06-13T10:39:17.647Z,19.40
2018-06-13T10:40:17.670Z,19.50
2018-06-13T10:41:17.690Z,19.61
2018-06-13T10:42:17.712Z,19.52
2018-06-13T10:43:17.738Z,19.55
2018-06-13T10:44:17.758Z,19.37
2018-06-13T10:45:17.781Z,19.34
2018-06-13T10:46:17.810Z,19.49
2018-06-13T10:47:17.829Z,19.53
2018-06-13T10:48:17.848Z,19.52
2018-06-13T10:49:17.875Z,19.57
2018-06-13T10:50:17.897Z,19.57
2018-06-13T10:51:17.916Z,19.75
2018-06-13T10:52:17.940Z,19.60
2018-06-13T10:53:17.963Z,19.49
2018-06-13T10:54:17.988Z,19.60
2018-06-13T10:55:18.012Z,19.50
2018-06-13T10:56:18.031Z,19.35
2018-06-13T10:57:18.054Z,19.34
2018-06-13T10:58:18.080Z,19.20
2018-06-13T10:59:18.103Z,19.30
2018-06-13T11:00:18.123Z,19.57
2018-06-13T11:01:18.147Z,19.64
2018-06-13T11:02:18.168Z,19.86
2018-06-13T11:03:18.193Z,20.02
2018-06-13T11:04:18.218Z,20.30
2018-06-13T11:05:18.237Z,20.23
2018-06-13T11:06:18.263Z,20.60
2018-06-13T11:07:18.282Z,20.44
2018-06-13T11:08:18.305Z,20.12
2018-06-13T11:09:18.332Z,19.92
2018-06-13T11:10:18.354Z,19.83
2018-06-13T11:11:18.373Z,19.57
2018-06-13T11:12:18.399Z,19.40
2018-06-13T11:13:18.421Z,19.20
2018-06-13T11:14:18.446Z,19.23
2018-06-13T11:15:18.469Z,19.15
2018-06-13T11:16:18.491Z,19.07
2018-06-13T11:17:18.518Z,18.91
2018-06-13T11:18:18.538Z,18.72
2018-06-13T11:19:18.558Z,18.59
2018-06-13T11:20:18.596Z,18.39
2018-06-13T11:21:18.605Z,18.36
2018-06-13T11:22:18.626Z,18.34
2018-06-13T11:23:18.652Z,18.38
2018-06-13T11:24:18.675Z,18.39
2018-06-13T11:25:18.699Z,18.39
2018-06-13T11:26:18.719Z,18.56
2018-06-13T11:27:18.744Z,18.54
2018-06-13T11:28:18.765Z,18.54
2018-06-13T11:29:18.789Z,18.75
2018-06-13T11:30:18.811Z,18.86
2018-06-13T11:31:18.833Z,18.84
2018-06-13T11:32:18.853Z,18.84
2018-06-13T11:33:18.898Z,18.99
2018-06-13T11:34:18.903Z,19.00
2018-06-13T11:35:18.920Z,19.09
2018-06-13T11:36:18.989Z,19.19
2018-06-13T11:37:18.968Z,19.25
2018-06-13T11:38:18.989Z,19.28
2018-06-13T11:39:19.015Z,19.25
2018-06-13T11:40:19.035Z,19.32
2018-06-13T11:41:19.059Z,19.17
2018-06-13T11:42:19.078Z,19.27
2018-06-13T11:43:19.099Z,19.28
2018-06-13T11:44:19.120Z,19.43
2018-06-13T11:45:19.143Z,19.23
2018-06-13T11:46:19.168Z,19.13
2018-06-13T11:47:19.191Z,19.05
2018-06-13T11:48:19.210Z,18.90
2018-06-13T11:49:19.236Z,18.93
2018-06-13T11:50:19.257Z,18.94
2018-06-13T11:51:19.279Z,18.89
2018-06-13T11:52:19.301Z,18.97
2018-06-13T11:53:19.322Z,18.94
2018-06-13T11:54:19.344Z,19.13
2018-06-13T11:55:19.369Z,19.13
2018-06-13T11:56:19.389Z,19.28
2018-06-13T11:57:19.413Z,19.40
2018-06-13T11:58:19.431Z,19.46
2018-06-13T11:59:19.458Z,19.53
2018-06-13T12:00:19.490Z,19.37
2018-06-13T12:01:19.501Z,19.37
2018-06-13T12:02:19.522Z,19.32
2018-06-13T12:03:19.545Z,19.47
2018-06-13T12:04:19.569Z,19.52
2018-06-13T12:05:19.590Z,19.34
2018-06-13T12:06:19.612Z,19.42
2018-06-13T12:07:19.636Z,19.45
2018-06-13T12:08:19.659Z,19.34
2018-06-13T12:09:19.680Z,19.46
2018-06-13T12:10:19.702Z,19.64
2018-06-13T12:11:19.724Z,20.02
2018-06-13T12:12:19.747Z,19.90
2018-06-13T12:13:19.772Z,19.74
2018-06-13T12:14:19.791Z,19.92
2018-06-13T12:15:19.817Z,20.11
2018-06-13T12:16:19.841Z,20.23
2018-06-13T12:17:19.861Z,20.20
2018-06-13T12:18:19.881Z,20.72
2018-06-13T12:19:19.903Z,20.64
2018-06-13T12:20:19.927Z,20.64
2018-06-13T12:21:19.951Z,20.78
2018-06-13T12:22:19.972Z,21.11
2018-06-13T12:23:19.997Z,21.43
2018-06-13T12:24:20.019Z,21.19
2018-06-13T12:25:20.041Z,21.70
2018-06-13T12:26:20.065Z,21.62
2018-06-13T12:27:20.085Z,21.46
2018-06-13T12:28:20.110Z,21.40
2018-06-13T12:29:20.136Z,20.98
2018-06-13T12:30:20.155Z,20.60
2018-06-13T12:31:20.179Z,20.60
2018-06-13T12:32:20.201Z,20.41
2018-06-13T12:33:20.225Z,20.35
2018-06-13T12:34:20.311Z,20.27
2018-06-13T12:35:20.275Z,20.18
2018-06-13T12:36:20.297Z,20.23
2018-06-13T12:37:20.323Z,20.15
2018-06-13T12:38:20.343Z,20.40
2018-06-13T12:39:20.365Z,20.63
2018-06-13T12:40:20.425Z,21.00
2018-06-13T12:41:20.414Z,21.38
2018-06-13T12:42:20.437Z,21.64
2018-06-13T12:43:20.459Z,21.62
2018-06-13T12:44:20.485Z,21.43
2018-06-13T12:45:20.517Z,21.66
2018-06-13T12:46:20.531Z,21.56
2018-06-13T12:47:20.554Z,21.27
2018-06-13T12:48:20.579Z,20.94
2018-06-13T12:49:20.603Z,21.11
2018-06-13T12:50:20.626Z,21.09
2018-06-13T12:51:20.647Z,20.78
2018-06-13T12:52:20.676Z,20.61